Raft Island, Washington
Current Conditions -  °F | °C
As of 7:53 AM on Thursday 23 Oct 2014 (Local Time) from KTIW Reporting Station
Light Rain Light Rain  
Wind Chill: 51°   Ceiling: 6500
Heat Index: 51°   Visibility: 10mi
Dew Point: 46°   Wind: 8mph
Humidity: 83%   Direction: 170°S
Pressure: 29.73"   Gusts: NA
Location:  47.2986°N, 122.616°W
Report Text: KTIW 231453Z 17007KT 120V190 10SM -RA OVC065 11/08 A2973 RMK AO2 SLP068 P0001 60012 T01060078 50004
Loading
Personal Weather Stations






























Interactive Weather Map
Tropical Storm Tracking
New forecast layout! Learn more

10-Day Weather Forecast

Advertisements
Track Severe Weather on mobile